createdAt,value
2023-04-13T00:01:11.664Z,94215.91
2023-04-13T00:03:39.562Z,94211.22
2023-04-13T00:06:11.032Z,94190.88
2023-04-13T00:08:38.639Z,94222.03
2023-04-13T00:11:08.015Z,94212.28
2023-04-13T00:13:41.540Z,94214.22
2023-04-13T00:16:10.256Z,94224.81
2023-04-13T00:18:37.307Z,94227.25
2023-04-13T00:21:04.745Z,94229.88
2023-04-13T00:23:32.139Z,94222.31
2023-04-13T00:26:01.833Z,94240.25
2023-04-13T00:28:30.160Z,94228.06
2023-04-13T00:30:59.792Z,94134.34
2023-04-13T00:33:26.766Z,94226.56
2023-04-13T00:35:53.985Z,94225.75
2023-04-13T00:38:21.004Z,94221.75
2023-04-13T00:40:48.295Z,94214.59
2023-04-13T00:43:16.275Z,94234.16
2023-04-13T00:45:44.148Z,94233.94
2023-04-13T00:48:13.635Z,94222.41
2023-04-13T00:50:42.255Z,94239.78
2023-04-13T00:53:13.792Z,94233.44
2023-04-13T00:55:42.899Z,94235.50
2023-04-13T00:58:10.168Z,94225.16
2023-04-13T01:00:43.212Z,94208.69
2023-04-13T01:03:10.997Z,94231.81
2023-04-13T01:06:07.793Z,94228.00
2023-04-13T01:09:02.822Z,94238.94
2023-04-13T01:11:52.481Z,94259.03
2023-04-13T01:14:29.949Z,94248.19
2023-04-13T01:20:01.903Z,94249.00
2023-04-13T01:22:35.744Z,94233.13
2023-04-13T01:25:40.257Z,94254.16
2023-04-13T01:28:16.026Z,94237.91
2023-04-13T01:30:44.704Z,94231.25
2023-04-13T01:33:14.036Z,94235.13
2023-04-13T01:35:42.439Z,94248.63
2023-04-13T01:38:15.409Z,94235.72
2023-04-13T01:40:42.400Z,94240.41
2023-04-13T01:43:11.316Z,94245.25
2023-04-13T01:46:04.839Z,94103.16
2023-04-13T01:48:52.730Z,94244.09
2023-04-13T01:51:41.633Z,94215.78
2023-04-13T01:54:23.765Z,94241.34
2023-04-13T01:56:51.636Z,94232.25
2023-04-13T01:59:20.166Z,94204.84
2023-04-13T02:01:47.776Z,94183.56
2023-04-13T02:04:15.624Z,94237.53
2023-04-13T02:06:44.920Z,94189.19
2023-04-13T02:09:12.810Z,94225.31
2023-04-13T02:11:39.722Z,94195.16
2023-04-13T02:14:08.126Z,94229.56
2023-04-13T02:16:35.300Z,94221.81
2023-04-13T02:19:02.680Z,94256.66
2023-04-13T02:21:30.727Z,94249.78
2023-04-13T02:23:58.321Z,94234.69
2023-04-13T02:26:26.230Z,94248.63
2023-04-13T02:28:53.462Z,94257.94
2023-04-13T02:31:23.513Z,94228.56
2023-04-13T02:33:51.829Z,94244.44
2023-04-13T02:36:19.237Z,94243.16
2023-04-13T02:38:56.814Z,94263.50
2023-04-13T02:41:28.058Z,94230.97
2023-04-13T02:43:55.168Z,94230.59
2023-04-13T02:46:24.764Z,94250.84
2023-04-13T02:48:58.289Z,94263.28
2023-04-13T02:51:28.093Z,94261.53
2023-04-13T02:53:57.773Z,94267.19
2023-04-13T02:56:28.428Z,94261.78
2023-04-13T02:58:58.402Z,94244.13
2023-04-13T03:01:25.515Z,94262.06
2023-04-13T03:03:54.632Z,94276.44
2023-04-13T03:06:26.092Z,94269.31
2023-04-13T03:08:58.102Z,94271.59
2023-04-13T03:11:26.470Z,94257.91
2023-04-13T03:14:13.168Z,94266.63
2023-04-13T03:16:41.817Z,94256.06
2023-04-13T03:19:10.362Z,94271.38
2023-04-13T03:21:41.458Z,94275.84
2023-04-13T03:24:13.630Z,94263.09
2023-04-13T03:26:40.809Z,94258.13
2023-04-13T03:29:13.046Z,94282.59
2023-04-13T03:31:44.589Z,94275.13
2023-04-13T03:34:12.303Z,94276.59
2023-04-13T03:36:41.581Z,94277.41
2023-04-13T03:39:09.391Z,94272.78
2023-04-13T03:41:38.246Z,94283.59
2023-04-13T03:44:08.561Z,94292.34
2023-04-13T03:46:37.637Z,94282.69
2023-04-13T03:49:15.192Z,94286.94
2023-04-13T03:51:42.125Z,94261.84
2023-04-13T03:54:09.389Z,94283.69
2023-04-13T03:56:37.022Z,94294.75
2023-04-13T03:59:04.262Z,94296.97
2023-04-13T04:01:31.836Z,94280.03
2023-04-13T04:03:59.597Z,94249.75
2023-04-13T04:06:29.212Z,94292.72
2023-04-13T04:09:09.501Z,94295.63
2023-04-13T04:11:43.068Z,94258.19
2023-04-13T04:14:11.149Z,94286.78
2023-04-13T04:16:41.593Z,94294.00
2023-04-13T04:19:14.389Z,94247.78
2023-04-13T04:21:46.925Z,94277.44
2023-04-13T04:24:23.623Z,94298.44
2023-04-13T04:26:59.796Z,94297.06
2023-04-13T04:29:34.439Z,94311.72
2023-04-13T04:32:10.867Z,94285.94
2023-04-13T04:34:40.942Z,94295.84
2023-04-13T04:37:19.731Z,94288.38
2023-04-13T04:39:54.336Z,94288.63
2023-04-13T04:42:21.765Z,94306.50
2023-04-13T04:44:50.414Z,94303.56
2023-04-13T04:47:19.990Z,94298.84
2023-04-13T04:50:06.939Z,94306.47
2023-04-13T04:52:38.795Z,94266.06
2023-04-13T04:55:06.999Z,94324.69
2023-04-13T04:57:36.393Z,94317.88
2023-04-13T05:00:10.969Z,94312.72
2023-04-13T05:02:40.439Z,94313.44
2023-04-13T05:05:11.941Z,94317.78
2023-04-13T05:07:39.836Z,94319.28
2023-04-13T05:10:09.403Z,94308.81
2023-04-13T05:12:41.424Z,94306.94
2023-04-13T05:15:09.230Z,94297.38
2023-04-13T05:17:36.977Z,94302.69
2023-04-13T05:20:07.093Z,94310.50
2023-04-13T05:22:46.260Z,94312.88
2023-04-13T05:25:14.595Z,94288.38
2023-04-13T05:27:43.120Z,94307.56
2023-04-13T05:30:11.110Z,94289.63
2023-04-13T05:32:40.346Z,94310.28
2023-04-13T05:35:08.521Z,94294.03
2023-04-13T05:37:35.429Z,94310.09
2023-04-13T05:40:09.856Z,94308.59
2023-04-13T05:42:37.025Z,94278.41
2023-04-13T05:45:09.716Z,94300.88
2023-04-13T05:47:45.624Z,94301.53
2023-04-13T05:50:14.939Z,94310.25
2023-04-13T05:52:42.629Z,94295.19
2023-04-13T05:55:10.260Z,94323.44
2023-04-13T05:57:38.952Z,94313.28
2023-04-13T06:00:11.799Z,94302.22
2023-04-13T06:02:53.495Z,94297.28
2023-04-13T06:05:21.234Z,94314.75
2023-04-13T06:07:48.506Z,94295.88
2023-04-13T06:10:16.714Z,94298.53
2023-04-13T06:12:48.334Z,94282.34
2023-04-13T06:15:15.516Z,94304.19
2023-04-13T06:17:42.478Z,94306.91
2023-04-13T06:20:10.878Z,94307.59
2023-04-13T06:22:37.899Z,94285.00
2023-04-13T06:25:05.729Z,94311.50
2023-04-13T06:27:35.512Z,94305.38
2023-04-13T06:30:02.656Z,94299.03
2023-04-13T06:32:32.585Z,94317.59
2023-04-13T06:34:59.533Z,94314.75
2023-04-13T06:37:31.616Z,94314.41
2023-04-13T06:39:58.816Z,94302.16
2023-04-13T06:42:25.905Z,94291.28
2023-04-13T06:45:12.951Z,94300.03
2023-04-13T06:47:43.748Z,94304.38
2023-04-13T06:50:15.722Z,94303.41
2023-04-13T06:52:46.929Z,94295.47
2023-04-13T06:55:15.884Z,94311.63
2023-04-13T06:57:43.714Z,94298.88
2023-04-13T07:00:26.375Z,94303.28
2023-04-13T07:02:57.405Z,94314.59
2023-04-13T07:05:24.851Z,94281.75
2023-04-13T07:07:54.652Z,94310.50
2023-04-13T07:10:23.143Z,94302.56
2023-04-13T07:12:56.413Z,94288.69
2023-04-13T07:15:30.473Z,94301.03
2023-04-13T07:17:57.934Z,94299.44
2023-04-13T07:20:26.838Z,94306.19
2023-04-13T07:22:54.258Z,94279.44
2023-04-13T07:25:21.954Z,94300.31
2023-04-13T07:27:50.379Z,94287.31
2023-04-13T07:30:18.501Z,94231.16
2023-04-13T07:32:47.434Z,94249.91
2023-04-13T07:35:14.639Z,94282.16
2023-04-13T07:37:44.497Z,94260.56
2023-04-13T07:40:11.955Z,94266.19
2023-04-13T07:42:42.405Z,94274.28
2023-04-13T07:45:11.372Z,94282.84
2023-04-13T07:47:38.924Z,94254.53
2023-04-13T07:50:09.608Z,94283.41
2023-04-13T07:52:37.970Z,94271.13
2023-04-13T07:55:06.284Z,94269.25
2023-04-13T07:57:37.009Z,94270.31
2023-04-13T08:00:06.580Z,94275.66
2023-04-13T08:02:41.956Z,94275.66
2023-04-13T08:05:14.955Z,94247.88
2023-04-13T08:07:46.699Z,94263.09
2023-04-13T08:10:16.492Z,94257.75
2023-04-13T08:12:44.238Z,94270.03
2023-04-13T08:15:13.384Z,94264.94
2023-04-13T08:17:41.154Z,94239.81
2023-04-13T08:20:09.155Z,94242.44
2023-04-13T08:22:36.860Z,94239.72
2023-04-13T08:25:06.763Z,94234.31
2023-04-13T08:27:34.414Z,94219.28
2023-04-13T08:30:02.126Z,94240.59
2023-04-13T08:32:36.793Z,94231.03
2023-04-13T08:35:09.743Z,94238.13
2023-04-13T08:37:37.028Z,94232.75
2023-04-13T08:40:08.197Z,94235.59
2023-04-13T08:42:37.208Z,94219.75
2023-04-13T08:45:04.964Z,94240.53
2023-04-13T08:47:32.357Z,94219.84
2023-04-13T08:50:01.555Z,94236.31
2023-04-13T08:52:39.112Z,94201.81
2023-04-13T08:55:06.669Z,94208.91
2023-04-13T08:57:36.763Z,94213.53
2023-04-13T09:00:08.454Z,94199.22
2023-04-13T09:02:40.612Z,94202.00
2023-04-13T09:05:16.624Z,94203.75
2023-04-13T09:07:53.942Z,94224.91
2023-04-13T09:10:22.055Z,94164.41
2023-04-13T09:12:53.044Z,94208.91
2023-04-13T09:15:20.053Z,94216.41
2023-04-13T09:18:10.941Z,94227.81
2023-04-13T09:20:43.015Z,94210.16
2023-04-13T09:23:16.570Z,94217.31
2023-04-13T09:25:45.357Z,94203.88
2023-04-13T09:28:19.657Z,94198.56
2023-04-13T09:30:47.420Z,94191.56
2023-04-13T09:33:15.947Z,94195.53
2023-04-13T09:35:43.173Z,94192.53
2023-04-13T09:38:11.824Z,94186.16
2023-04-13T09:40:48.586Z,94183.25
2023-04-13T09:43:15.669Z,94115.44
2023-04-13T09:45:46.553Z,94181.56
2023-04-13T09:48:20.586Z,94171.22
2023-04-13T09:51:06.789Z,94163.72
2023-04-13T09:53:46.677Z,94167.22
2023-04-13T09:56:14.238Z,94150.75
2023-04-13T09:58:46.000Z,94159.81
2023-04-13T10:01:17.360Z,94140.16
2023-04-13T10:03:44.934Z,94059.09
2023-04-13T10:06:12.867Z,94145.56
2023-04-13T10:08:42.113Z,94099.13
2023-04-13T10:11:14.763Z,94143.63
2023-04-13T10:13:53.674Z,94118.28
2023-04-13T10:16:54.751Z,94140.88
2023-04-13T10:19:25.079Z,94143.00
2023-04-13T10:21:53.213Z,94135.13
2023-04-13T10:24:21.191Z,94145.38
2023-04-13T10:26:48.593Z,94103.09
2023-04-13T10:29:16.669Z,94138.94
2023-04-13T10:31:49.076Z,94134.84
2023-04-13T10:34:30.600Z,94127.22
2023-04-13T10:37:04.334Z,94132.88
2023-04-13T10:39:34.380Z,94122.97
2023-04-13T10:42:09.320Z,94108.56
2023-04-13T10:44:51.175Z,94070.59
2023-04-13T10:47:25.886Z,94121.56
2023-04-13T10:49:54.974Z,94115.06
2023-04-13T10:52:21.861Z,94115.69
2023-04-13T10:54:49.345Z,94115.88
2023-04-13T10:57:16.914Z,94109.94
2023-04-13T10:59:58.060Z,94106.63
2023-04-13T11:02:31.906Z,94102.53
2023-04-13T11:05:00.479Z,94102.41
2023-04-13T11:07:28.611Z,94094.75
2023-04-13T11:12:30.962Z,94093.41
2023-04-13T11:14:57.967Z,94084.41
2023-04-13T11:17:25.318Z,94076.13
2023-04-13T11:19:54.007Z,94075.06
2023-04-13T11:22:23.644Z,94081.09
2023-04-13T11:24:51.387Z,94063.47
2023-04-13T11:27:23.294Z,94077.94
2023-04-13T11:29:59.230Z,94089.41
2023-04-13T11:32:26.889Z,94080.34
2023-04-13T11:34:53.826Z,94066.97
2023-04-13T11:37:22.017Z,94064.94
2023-04-13T11:39:50.689Z,94074.03
2023-04-13T11:42:17.819Z,94056.34
2023-04-13T11:44:46.409Z,94069.84
2023-04-13T11:47:17.771Z,94060.94
2023-04-13T11:49:48.271Z,94025.34
2023-04-13T11:52:15.896Z,94068.22
2023-04-13T11:54:43.212Z,94040.38
2023-04-13T11:57:11.088Z,94037.94
2023-04-13T11:59:38.716Z,94039.38
2023-04-13T12:02:13.441Z,94040.72
2023-04-13T12:04:49.188Z,94050.59
2023-04-13T12:07:18.716Z,94047.72
2023-04-13T12:17:41.295Z,94042.78
2023-04-13T12:20:16.249Z,94042.09
2023-04-13T12:25:21.019Z,94035.66
2023-04-13T12:27:52.717Z,94018.94
2023-04-13T12:30:20.982Z,94013.00
2023-04-13T12:32:51.077Z,94024.66
2023-04-13T12:35:19.568Z,94006.50
2023-04-13T12:37:47.803Z,94013.03
2023-04-13T12:40:18.756Z,94012.06
2023-04-13T12:42:47.287Z,94014.13
2023-04-13T12:45:16.207Z,94011.06
2023-04-13T12:47:43.281Z,94007.38
2023-04-13T12:50:11.438Z,93983.75
2023-04-13T12:52:41.541Z,93990.09
2023-04-13T12:55:09.366Z,93985.22
2023-04-13T12:57:36.588Z,93992.03
2023-04-13T13:00:09.024Z,93978.00
2023-04-13T13:02:36.684Z,93976.78
2023-04-13T13:05:05.073Z,93959.72
2023-04-13T13:07:32.452Z,93976.72
2023-04-13T13:10:01.124Z,93969.16
2023-04-13T13:12:30.189Z,93979.94
2023-04-13T13:14:58.773Z,93955.34
2023-04-13T13:17:26.012Z,93978.69
2023-04-13T13:19:53.122Z,93971.69
2023-04-13T13:22:20.866Z,93969.03
2023-04-13T13:24:47.979Z,93965.31
2023-04-13T13:27:48.473Z,93957.31
2023-04-13T13:30:03.778Z,93952.34
2023-04-13T13:32:31.439Z,93957.53
2023-04-13T13:34:58.654Z,93968.75
2023-04-13T13:37:25.629Z,93968.63
2023-04-13T13:39:52.866Z,93955.72
2023-04-13T13:42:19.913Z,93955.19
2023-04-13T13:44:47.327Z,93947.91
2023-04-13T13:47:14.583Z,93942.94
2023-04-13T13:49:45.253Z,93936.50
2023-04-13T13:52:28.529Z,93943.97
2023-04-13T13:55:00.152Z,93947.34
2023-04-13T13:57:27.236Z,93891.69
2023-04-13T13:59:54.272Z,93929.38
2023-04-13T14:02:21.478Z,93929.03
2023-04-13T14:04:48.679Z,93900.50
2023-04-13T14:07:15.572Z,93900.88
2023-04-13T14:09:42.900Z,93908.75
2023-04-13T14:12:09.932Z,93893.13
2023-04-13T14:14:36.922Z,93902.09
2023-04-13T14:17:03.838Z,93907.84
2023-04-13T14:19:31.157Z,93893.59
2023-04-13T14:21:58.220Z,93878.56
2023-04-13T14:24:26.497Z,93893.78
2023-04-13T14:26:53.887Z,93899.69
2023-04-13T14:29:20.846Z,93887.13
2023-04-13T14:31:47.977Z,93880.06
2023-04-13T14:34:14.990Z,93903.22
2023-04-13T14:36:42.689Z,93912.97
2023-04-13T14:39:10.151Z,93909.13
2023-04-13T14:41:37.204Z,93919.56
2023-04-13T14:44:04.132Z,93904.59
2023-04-13T14:46:31.230Z,93907.69
2023-04-13T14:48:58.686Z,93909.50
2023-04-13T14:51:25.769Z,93914.53
2023-04-13T14:53:56.451Z,93921.34
2023-04-13T14:56:24.050Z,93928.91
2023-04-13T14:58:51.301Z,93910.38
2023-04-13T15:01:23.006Z,93914.53
2023-04-13T15:03:50.640Z,93933.03
2023-04-13T15:06:18.756Z,93915.25
2023-04-13T15:08:46.384Z,93920.09
2023-04-13T15:11:13.914Z,93934.91
2023-04-13T15:13:42.732Z,93892.94
2023-04-13T15:16:09.947Z,93811.44
2023-04-13T15:18:36.949Z,93943.06
2023-04-13T15:21:04.248Z,93912.53
2023-04-13T15:23:33.378Z,93934.75
2023-04-13T15:26:03.119Z,93931.34
2023-04-13T15:28:30.511Z,93915.91
2023-04-13T15:30:57.664Z,93916.63
2023-04-13T15:33:24.797Z,93917.59
2023-04-13T15:35:52.683Z,93905.78
2023-04-13T15:38:20.046Z,93927.03
2023-04-13T15:40:47.020Z,93948.06
2023-04-13T15:43:14.254Z,93924.31
2023-04-13T15:45:41.382Z,93933.22
2023-04-13T15:48:08.418Z,93919.41
2023-04-13T15:50:35.732Z,93885.41
2023-04-13T15:53:02.572Z,93922.09
2023-04-13T15:55:29.657Z,93905.50
2023-04-13T15:57:57.255Z,93922.50
2023-04-13T16:00:26.428Z,93923.34
2023-04-13T16:02:53.802Z,93937.38
2023-04-13T16:05:21.182Z,93928.25
2023-04-13T16:07:48.648Z,93943.19
2023-04-13T16:10:16.844Z,93939.28
2023-04-13T16:12:44.787Z,93922.41
2023-04-13T16:15:13.078Z,93947.09
2023-04-13T16:17:43.744Z,93919.16
2023-04-13T16:20:14.669Z,93936.84
2023-04-13T16:22:42.845Z,93945.84
2023-04-13T16:25:15.424Z,93939.22
2023-04-13T16:27:43.017Z,93901.47
2023-04-13T16:30:13.483Z,93951.13
2023-04-13T16:32:42.636Z,93947.22
2023-04-13T16:35:10.161Z,93934.56
2023-04-13T16:37:42.580Z,93947.41
2023-04-13T16:40:11.278Z,93922.78
2023-04-13T16:42:39.430Z,93945.59
2023-04-13T16:45:07.737Z,93914.41
2023-04-13T16:47:35.552Z,93936.16
2023-04-13T16:50:02.496Z,93945.13
2023-04-13T16:52:33.234Z,93953.34
2023-04-13T16:55:01.515Z,93951.50
2023-04-13T16:57:28.849Z,93936.78
2023-04-13T16:59:59.971Z,93936.38
2023-04-13T17:02:31.502Z,93943.53
2023-04-13T17:04:59.008Z,93917.94
2023-04-13T17:07:28.209Z,93947.75
2023-04-13T17:09:55.512Z,93947.34
2023-04-13T17:12:22.977Z,93941.06
2023-04-13T17:14:50.175Z,93941.25
2023-04-13T17:17:17.144Z,93951.16
2023-04-13T17:19:44.268Z,93944.47
2023-04-13T17:22:11.672Z,93956.06
2023-04-13T17:24:39.251Z,93945.75
2023-04-13T17:27:06.587Z,93942.75
2023-04-13T17:29:38.007Z,93956.41
2023-04-13T17:32:06.120Z,93969.38
2023-04-13T17:34:33.212Z,93969.69
2023-04-13T17:37:02.198Z,93976.81
2023-04-13T17:39:29.265Z,93953.06
2023-04-13T17:41:56.717Z,93968.94
2023-04-13T17:44:23.776Z,93977.00
2023-04-13T17:46:52.736Z,93992.38
2023-04-13T17:49:22.768Z,93999.31
2023-04-13T17:51:50.351Z,93989.25
2023-04-13T17:54:17.455Z,93993.69
2023-04-13T17:56:44.552Z,93996.00
2023-04-13T17:59:15.922Z,93933.53
2023-04-13T18:01:43.764Z,93959.28
2023-04-13T18:04:12.372Z,93999.16
2023-04-13T18:06:40.858Z,93991.91
2023-04-13T18:09:09.071Z,94004.41
2023-04-13T18:11:36.342Z,93977.31
2023-04-13T18:14:03.274Z,93996.91
2023-04-13T18:16:34.009Z,93986.97
2023-04-13T18:19:01.506Z,93995.50
2023-04-13T18:21:28.791Z,94000.47
2023-04-13T18:23:56.275Z,94007.19
2023-04-13T18:26:23.388Z,93950.94
2023-04-13T18:28:50.710Z,94013.94
2023-04-13T18:31:17.737Z,94018.63
2023-04-13T18:33:45.145Z,93995.03
2023-04-13T18:36:16.855Z,94023.91
2023-04-13T18:38:45.248Z,94003.09
2023-04-13T18:41:12.813Z,94033.16
2023-04-13T18:43:39.821Z,94020.81
2023-04-13T18:46:08.083Z,93998.31
2023-04-13T18:48:35.769Z,93976.31
2023-04-13T18:51:03.743Z,93971.75
2023-04-13T18:53:31.234Z,94028.88
2023-04-13T18:55:59.069Z,94046.63
2023-04-13T18:58:27.187Z,94025.50
2023-04-13T19:00:55.795Z,94056.50
2023-04-13T19:03:23.596Z,94017.28
2023-04-13T19:05:50.735Z,94029.31
2023-04-13T19:08:17.879Z,93989.28
2023-04-13T19:10:45.102Z,94054.81
2023-04-13T19:13:15.123Z,94033.47
2023-04-13T19:15:42.519Z,94042.06
2023-04-13T19:18:11.434Z,94045.63
2023-04-13T19:20:38.444Z,94037.84
2023-04-13T19:23:06.799Z,94066.97
2023-04-13T19:25:34.096Z,94006.97
2023-04-13T19:28:01.600Z,94053.88
2023-04-13T19:30:28.857Z,94022.56
2023-04-13T19:32:56.080Z,94028.91
2023-04-13T19:35:24.489Z,94010.97
2023-04-13T19:37:51.466Z,94059.66
2023-04-13T19:40:18.881Z,94066.72
2023-04-13T19:42:46.385Z,94068.09
2023-04-13T19:45:14.589Z,94044.97
2023-04-13T19:47:42.586Z,94015.69
2023-04-13T19:50:12.457Z,94061.28
2023-04-13T19:52:41.475Z,94068.94
2023-04-13T19:55:12.175Z,94050.44
2023-04-13T19:57:43.194Z,94051.25
2023-04-13T20:00:19.238Z,94056.31
2023-04-13T20:02:51.207Z,94079.63
2023-04-13T20:05:19.619Z,94089.56
2023-04-13T20:07:46.552Z,94075.53
2023-04-13T20:10:15.207Z,94088.84
2023-04-13T20:12:42.061Z,94054.41
2023-04-13T20:15:09.534Z,94065.88
2023-04-13T20:17:36.548Z,94076.59
2023-04-13T20:20:06.129Z,94089.22
2023-04-13T20:22:33.064Z,94091.91
2023-04-13T20:25:00.663Z,94069.06
2023-04-13T20:27:27.873Z,93962.44
2023-04-13T20:29:55.014Z,94099.06
2023-04-13T20:32:21.938Z,94058.94
2023-04-13T20:34:49.181Z,94066.19
2023-04-13T20:37:18.487Z,94067.63
2023-04-13T20:39:52.998Z,94101.34
2023-04-13T20:42:21.816Z,94070.75
2023-04-13T20:44:57.509Z,94084.72
2023-04-13T20:47:28.488Z,94091.44
2023-04-13T20:49:57.378Z,94083.22
2023-04-13T20:52:25.992Z,94075.56
2023-04-13T20:54:54.730Z,94071.06
2023-04-13T20:57:22.135Z,94084.63
2023-04-13T20:59:52.140Z,94068.63
2023-04-13T21:02:19.280Z,94045.13
2023-04-13T21:04:46.869Z,94063.59
2023-04-13T21:07:15.411Z,93896.50
2023-04-13T21:09:42.808Z,94066.50
2023-04-13T21:12:09.799Z,94082.06
2023-04-13T21:14:36.875Z,94069.38
2023-04-13T21:17:05.014Z,94051.84
2023-04-13T21:19:32.677Z,94085.66
2023-04-13T21:21:59.736Z,94088.38
2023-04-13T21:24:26.923Z,94083.38
2023-04-13T21:26:54.072Z,94085.50
2023-04-13T21:29:21.711Z,94070.00
2023-04-13T21:31:49.193Z,93935.41
2023-04-13T21:34:17.196Z,94090.97
2023-04-13T21:39:16.047Z,94064.88
2023-04-13T21:41:42.992Z,94045.09
2023-04-13T21:44:22.723Z,94063.63
2023-04-13T21:46:55.947Z,94084.66
2023-04-13T21:49:23.140Z,94083.88
2023-04-13T21:51:50.078Z,94078.06
2023-04-13T21:54:17.269Z,94075.94
2023-04-13T21:56:44.184Z,94074.13
2023-04-13T21:59:11.533Z,94072.25
2023-04-13T22:01:38.577Z,94068.78
2023-04-13T22:04:06.372Z,94074.69
2023-04-13T22:06:33.542Z,94084.31
2023-04-13T22:09:00.931Z,94028.59
2023-04-13T22:11:28.326Z,94081.63
2023-04-13T22:13:55.282Z,94076.84
2023-04-13T22:16:22.587Z,94071.28
2023-04-13T22:18:49.987Z,94050.44
2023-04-13T22:21:16.913Z,94090.25
2023-04-13T22:23:43.989Z,94086.78
2023-04-13T22:26:10.933Z,94056.88
2023-04-13T22:28:37.993Z,94062.00
2023-04-13T22:31:09.043Z,94033.19
2023-04-13T22:33:36.555Z,94026.00
2023-04-13T22:36:05.237Z,94066.53
2023-04-13T22:38:32.587Z,94066.75
2023-04-13T22:41:04.920Z,94061.75
2023-04-13T22:43:31.925Z,94037.25
2023-04-13T22:45:59.668Z,94069.53
2023-04-13T22:48:30.418Z,94063.69
2023-04-13T22:51:00.424Z,94079.38
2023-04-13T22:53:27.857Z,94069.56
2023-04-13T22:55:54.846Z,94059.94
2023-04-13T22:58:23.033Z,94045.00
2023-04-13T23:00:50.095Z,94079.13
2023-04-13T23:03:17.324Z,94078.59
2023-04-13T23:05:46.009Z,94061.78
2023-04-13T23:08:13.516Z,94011.41
2023-04-13T23:10:40.597Z,94067.13
2023-04-13T23:13:07.673Z,94060.47
2023-04-13T23:15:34.709Z,94071.16
2023-04-13T23:18:02.903Z,94064.75
2023-04-13T23:20:30.509Z,94056.75
2023-04-13T23:22:57.396Z,94051.94
2023-04-13T23:25:24.426Z,94064.22
2023-04-13T23:27:51.300Z,94019.19
2023-04-13T23:30:18.526Z,94063.44
2023-04-13T23:32:45.597Z,94048.72
2023-04-13T23:35:12.565Z,94079.44
2023-04-13T23:37:40.685Z,94031.91
2023-04-13T23:40:09.250Z,94065.75
2023-04-13T23:42:36.570Z,94073.03
2023-04-13T23:45:04.249Z,94082.59
2023-04-13T23:47:31.501Z,94051.91
2023-04-13T23:49:58.516Z,94059.34
2023-04-13T23:52:25.376Z,94060.94
2023-04-13T23:54:52.304Z,94059.66
2023-04-13T23:57:19.189Z,94042.56
2023-04-13T23:59:46.413Z,94061.72
